TOURFACTS.DK  
Stats and Facts from Tour de France.

Tour de France 2018 starts in 254 days
  Riders   Stages   Teams   Summits   Yearly  


 
Search by year

 2017 - St. 21:  14824 starters.
  5131 different riders.
  634 teams.
  2232 stages.
  454 restdays.
  439589.60 km.
  5653 abandonnees.


Top 3
Christopher Froome86:20:55
Rigoberto Uran86:21:49
Romain Bardet86:23:15
Warren Barguil169 pt.
Primoz Roglic80 pt.
Thomas De Gendt64 pt.
Michael Matthews359 pt.
André Greipel234 pt.
Edvald Boasson Hagen220 pt.
Simon Yates86:27:09
Louis Meintjes86:29:15
Emanuel Buchmann86:54:16
Facts from Tour de France 2014
  |   Stages.  |   Stage winners.  |   Days in yellow  |   Average speed.  |   Route.  |   Teams.  |   All riders.  |   Rookies.  |   Withdrawls.  |  

  |   GC.  |   Polka  |   Green  |   White  |   Summits. (In tour)  |   Summits. (Points)  |   Miscellaneous.  |  

Stage 10 on 14 - 07 - 2014
         Owning:    Vincenzo Nibali      Joaquim Rodriguez      Peter Sagan      Romain Bardet  

Pick a stage:  1 2 3 4 5 6 7 8 9 10 11 12 13 14 15 16 17 18 19 20 21
  MulhouseLa Planche-des-Belles-Filles | Dist: 161.50 km.
Cat: 2Col du FirstplanFRAThomas Voeckler
5 points
 
Cat: 1Petit BallonESPJoaquim Rodriguez
10 points
 
Cat: 1Col du PlatzerwaselESPJoaquim Rodriguez
10 points
 
Cat: 2Col d'OderenESPJoaquim Rodriguez
5 points
 
Cat: 3Col des CroixESPJoaquim Rodriguez
2 points
 
Cat: 1Col des ChevrèresESPJoaquim Rodriguez
10 points
 
Cat: 1La Planche des Belles FillesITAVincenzo Nibali
20 points
 

Average speed for all riders in stage:  33,719 km./hr.
    Place:Name:Team:Time:Km/h:
ITAVincenzo NibaliKAZAstana Pro Team04:27:26  +  00:00:00=36,233 
FRAThibaut PinotFRAFDJ.fr04:27:41  +  00:00:15=36,199 
ESPAlejandro ValverdeESPMovistar Team04:27:46  +  00:00:20=36,188 
4 FRAJean-Christophe PeraudFRAAg2r La Mondiale04:27:46  +  00:00:20=36,188 
5 FRARomain BardetFRAAg2r La Mondiale04:27:48  +  00:00:22=36,184 
6 USATejay Van GarderenUSABMC Racing Team04:27:48  +  00:00:22=36,184 
7 AUSRichie PorteGBRSky Procycling04:27:51  +  00:00:25=36,177 
8 CZELeopold KönigDEUTeam NetApp – Endura04:28:16  +  00:00:50=36,121 
9 ESPJoaquim RodriguezRUSTeam Katusha04:28:18  +  00:00:52=36,116 
10 ESPMikel NieveGBRSky Procycling04:28:20  +  00:00:54=36,112 
11 ESPDaniel NavarroFRACofidis – Solutions Crédits04:28:30  +  00:01:04=36,089 
12 NEDBauke MollemaNLDBelkin Pro Cycling04:28:32  +  00:01:06=36,085 
13 PORRui CostaITALampre-Merida04:28:32  +  00:01:06=36,085 
14 FRAJohn GadretESPMovistar Team04:28:34  +  00:01:08=36,080 
15 ESPHaimar ZubeldiaUSATrek Factory Racing04:28:34  +  00:01:08=36,080 
16 LUXFränk SchleckUSATrek Factory Racing04:28:34  +  00:01:08=36,080 
17 BELJurgen Van Den BroeckBELLotto-Belisol Team04:28:42  +  00:01:16=36,063 
18 JPNChristopher HornerITALampre-Merida04:28:47  +  00:01:21=36,051 
19 WALGeraint ThomasGBRSky Procycling04:28:49  +  00:01:23=36,047 
20 SLOSimon SpilakRUSTeam Katusha04:28:52  +  00:01:26=36,040 
21 FRAChristophe RiblonFRAAg2r La Mondiale04:29:08  +  00:01:42=36,004 
22 NEDLaurens ten DamNLDBelkin Pro Cycling04:29:24  +  00:01:58=35,969 
23 ESPLuis Angel MateFRACofidis – Solutions Crédits04:29:27  +  00:02:01=35,962 
24 POLMichal KwiatkowskiBELOmega Pharma – Quick Step04:29:39  +  00:02:13=35,935 
25 SUIJakob FuglsangKAZAstana Pro Team04:30:13  +  00:02:47=35,860 
26 ITAMichele ScarponiKAZAstana Pro Team04:31:15  +  00:03:49=35,724 
27 ITAGiovanni ViscontiESPMovistar Team04:31:37  +  00:04:11=35,675 
28 FRAPierre RollandFRATeam Europcar04:31:40  +  00:04:14=35,669 
29 NEDSteven KruijswijkNLDBelkin Pro Cycling04:31:42  +  00:04:16=35,664 
30 FRANicolas EdetFRACofidis – Solutions Crédits04:31:47  +  00:04:21=35,653 
31 FRACyril GautierFRATeam Europcar04:31:52  +  00:04:26=35,642 
32 FRABrice FeilluFRABretagne - Séché Environnement04:32:00  +  00:04:34=35,625 
33 FRATony GallopinBELLotto-Belisol Team04:32:12  +  00:04:46=35,599 
34 COLJosé SerpaITALampre-Merida04:32:12  +  00:04:46=35,599 
35 RUSYury TrofimovRUSTeam Katusha04:32:33  +  00:05:07=35,553 
36 BELJan BakelantsBELOmega Pharma – Quick Step04:32:50  +  00:05:24=35,516 
37 SVKPeter VelitsUSABMC Racing Team04:33:08  +  00:05:42=35,477 
38 FRAMickaël CherelFRAAg2r La Mondiale04:33:10  +  00:05:44=35,473 
39 FRAThomas VoecklerFRATeam Europcar04:34:30  +  00:07:04=35,301 
40 FRAAmaël MoinardUSABMC Racing Team04:34:32  +  00:07:06=35,296 
41 URSTanel KangertKAZAstana Pro Team04:34:40  +  00:07:14=35,279 
42 SUIMarcel WyssCHEIAM Cycling04:35:25  +  00:07:59=35,183 
43 LUXBen GastauerFRAAg2r La Mondiale04:35:43  +  00:08:17=35,145 
44 FRAArnold JeannessonFRAFDJ.fr04:35:43  +  00:08:17=35,145 
45 NEDTom DumoulinNLDTeam Giant - Shimano04:36:11  +  00:08:45=35,085 
46 NEDBram TankinkNLDBelkin Pro Cycling04:37:19  +  00:09:53=34,942 
47 USAPeter StetinaUSABMC Racing Team04:37:38  +  00:10:12=34,902 
48 USAAndrew TalanskyUSAGarmin Sharp04:37:38  +  00:10:12=34,902 
49 NEDTom-Jelte SlagterUSAGarmin Sharp04:37:38  +  00:10:12=34,902 
50 FRASylvain ChavanelCHEIAM Cycling04:37:38  +  00:10:12=34,902 
51 ESPJon Izaguirre InsaustiESPMovistar Team04:38:03  +  00:10:37=34,850 
52 BELSep VanmarckeNLDBelkin Pro Cycling04:39:24  +  00:11:58=34,681 
53 HRVKristijan DurasekITALampre-Merida04:41:34  +  00:14:08=34,415 
54 USABenjamin KingUSAGarmin Sharp04:41:34  +  00:14:08=34,415 
55 SUIMartin ElmigerCHEIAM Cycling04:41:34  +  00:14:08=34,415 
56 BLRVasil KiryienkaGBRSky Procycling04:42:54  +  00:15:28=34,252 
57 FRASébastien MinardFRAAg2r La Mondiale04:43:33  +  00:16:07=34,174 
58 ESPJosé Joaquin RojasESPMovistar Team04:43:33  +  00:16:07=34,174 
59 ESPDavid de la CruzDEUTeam NetApp – Endura04:43:33  +  00:16:07=34,174 
60 GERJens VoigtUSATrek Factory Racing04:43:33  +  00:16:07=34,174 
61 ESPRafael Valls FerriITALampre-Merida04:43:33  +  00:16:07=34,174 
62 BELJohan VansummerenUSAGarmin Sharp04:43:33  +  00:16:07=34,174 
63 CZEJan BártaDEUTeam NetApp – Endura04:43:33  +  00:16:07=34,174 
64 PORNelson OliveiraITALampre-Merida04:43:33  +  00:16:07=34,174 
65 POLMichal GolasBELOmega Pharma – Quick Step04:43:33  +  00:16:07=34,174 
66 SUIFabian CancellaraUSATrek Factory Racing04:43:33  +  00:16:07=34,174 
67 GERTony MartinBELOmega Pharma – Quick Step04:43:33  +  00:16:07=34,174 
68 FRAAlexandre PichotFRATeam Europcar04:43:33  +  00:16:07=34,174 
69 JPNYukiya ArashiroFRATeam Europcar04:43:33  +  00:16:07=34,174 
70 SUIMichael SchärUSABMC Racing Team04:43:33  +  00:16:07=34,174 
71 URSRein TaaramäeFRACofidis – Solutions Crédits04:43:42  +  00:16:16=34,156 
72 BELGreg Van AvermaetUSABMC Racing Team04:43:46  +  00:16:20=34,148 
73 FRABlel KadriFRAAg2r La Mondiale04:45:11  +  00:17:45=33,978 
74 BELJens KeukeleireAUSOrica - GreenEDGE04:46:32  +  00:19:06=33,818 
75 AUSAdam HansenBELLotto-Belisol Team04:46:32  +  00:19:06=33,818 
76 DENLars BakBELLotto-Belisol Team04:46:32  +  00:19:06=33,818 
77 KAZMaxim IglinskiyKAZAstana Pro Team04:46:36  +  00:19:10=33,810 
78 FRAArthur VichotFRAFDJ.fr04:47:09  +  00:19:43=33,745 
79 FRAMatthieu LadagnousFRAFDJ.fr04:47:09  +  00:19:43=33,745 
80 FRARudy MolardFRACofidis – Solutions Crédits04:47:09  +  00:19:43=33,745 
81 FRAJérémy RoyFRAFDJ.fr04:47:09  +  00:19:43=33,745 
82 NEDRoy CurversNLDTeam Giant - Shimano04:47:09  +  00:19:43=33,745 
83 FRAPerrig QuemeneurFRATeam Europcar04:47:09  +  00:19:43=33,745 
84 ESPImanol ErvitiESPMovistar Team04:47:09  +  00:19:43=33,745 
85 AUSSimon GerransAUSOrica - GreenEDGE04:47:09  +  00:19:43=33,745 
86 AUSSimon ClarkeAUSOrica - GreenEDGE04:47:09  +  00:19:43=33,745 
87 ESPRubén PlazaESPMovistar Team04:47:09  +  00:19:43=33,745 
88 ESPMarkel IrizarUSATrek Factory Racing04:47:09  +  00:19:43=33,745 
89 ITAMatteo MontagutiFRAAg2r La Mondiale04:47:09  +  00:19:43=33,745 
90 ESPDavid LopezGBRSky Procycling04:47:16  +  00:19:50=33,732 
91 SUIMichael AlbasiniAUSOrica - GreenEDGE04:47:40  +  00:20:14=33,685 
92 ESPJesus HerradaESPMovistar Team04:47:40  +  00:20:14=33,685 
93 SVKPeter SaganITACannondale Pro Cycling04:49:57  +  00:22:31=33,420 
94 ITAMarco MarcatoITACannondale Pro Cycling04:49:59  +  00:22:33=33,416 
95 ITAAlessandro De MarchiITACannondale Pro Cycling04:49:59  +  00:22:33=33,416 
96 NEDLars BoomNLDBelkin Pro Cycling04:50:07  +  00:22:41=33,400 
97 USAAlex HowesUSAGarmin Sharp04:50:07  +  00:22:41=33,400 
98 NZLJack BauerUSAGarmin Sharp04:50:07  +  00:22:41=33,400 
99 KAZDmitriy GruzdevKAZAstana Pro Team04:50:35  +  00:23:09=33,347 
100 ITAMatteo TrentinBELOmega Pharma – Quick Step04:51:27  +  00:24:01=33,248 
101 ITAAlessandro VanottiKAZAstana Pro Team04:53:30  +  00:26:04=33,015 
102 UKRAndriy GrivkoKAZAstana Pro Team04:55:05  +  00:27:39=32,838 
103 POLBartosz HuzarskiDEUTeam NetApp – Endura04:55:05  +  00:27:39=32,838 
104 POLRafal MajkaRUSTinkoff Saxo04:56:00  +  00:28:34=32,736 
105 AUSMichael RogersRUSTinkoff Saxo04:56:06  +  00:28:40=32,725 
106 FRANicolas RocheRUSTinkoff Saxo04:56:06  +  00:28:40=32,725 
107 NEDKoen De KortNLDTeam Giant - Shimano04:56:06  +  00:28:40=32,725 
108 AUSLuke DurbridgeAUSOrica - GreenEDGE04:56:06  +  00:28:40=32,725 
109 CANChristian MeierAUSOrica - GreenEDGE04:56:06  +  00:28:40=32,725 
110 SUISébastien ReichenbachCHEIAM Cycling04:56:06  +  00:28:40=32,725 
111 FRAJulien SimonFRACofidis – Solutions Crédits04:56:06  +  00:28:40=32,725 
112 SUIGregory RastUSATrek Factory Racing04:56:09  +  00:28:43=32,720 
113 GERPaul VossDEUTeam NetApp – Endura04:56:09  +  00:28:43=32,720 
114 ITAFabio SabatiniITACannondale Pro Cycling04:56:14  +  00:28:48=32,711 
115 BELJürgen RoelandtsBELLotto-Belisol Team04:56:14  +  00:28:48=32,711 
116 FRAArnaud GérardFRABretagne - Séché Environnement04:56:14  +  00:28:48=32,711 
117 FRAFlorian GuillouFRABretagne - Séché Environnement04:56:14  +  00:28:48=32,711 
118 FRABryan CoquardFRATeam Europcar04:56:14  +  00:28:48=32,711 
119 NEDLieuwe WestraKAZAstana Pro Team04:56:14  +  00:28:48=32,711 
120 NEDTom LeezerNLDBelkin Pro Cycling04:56:14  +  00:28:48=32,711 
121 AUSHeinrich HausslerCHEIAM Cycling04:56:14  +  00:28:48=32,711 
122 FRAYohann GèneFRATeam Europcar04:56:19  +  00:28:53=32,702 
123 FRAKévin RezaFRATeam Europcar04:56:19  +  00:28:53=32,702 
124 FRAFlorian VachonFRABretagne - Séché Environnement04:56:19  +  00:28:53=32,702 
125 RUSAlexander PorsevRUSTeam Katusha04:56:27  +  00:29:01=32,687 
126 FRAArmindo FonsecaFRABretagne - Séché Environnement04:56:42  +  00:29:16=32,659 
127 SUIReto HollensteinCHEIAM Cycling04:56:42  +  00:29:16=32,659 
128 FRAAnthony DelaplaceFRABretagne - Séché Environnement04:56:42  +  00:29:16=32,659 
129 BELMaarten WynantsNLDBelkin Pro Cycling04:56:49  +  00:29:23=32,646 
130 NEDAlbert TimmerNLDTeam Giant - Shimano04:56:53  +  00:29:27=32,639 
131 SLOKristjan KorenITACannondale Pro Cycling04:57:09  +  00:29:43=32,610 
132 ITAMatteo TosattoRUSTinkoff Saxo04:57:15  +  00:29:49=32,599 
133 PORJosé João PimentaDEUTeam NetApp – Endura04:57:53  +  00:30:27=32,530 
134 FRAJérôme PineauCHEIAM Cycling04:58:03  +  00:30:37=32,511 
135 ITADaniel OssUSABMC Racing Team04:58:05  +  00:30:39=32,508 
136 FRACyril LemoineFRACofidis – Solutions Crédits04:58:05  +  00:30:39=32,508 
137 ITADavide CimolaiITALampre-Merida04:58:07  +  00:30:41=32,504 
138 PORSergio PaulinhoRUSTinkoff Saxo04:58:11  +  00:30:45=32,497 
139 URSGatis SmukulisRUSTeam Katusha04:58:13  +  00:30:47=32,493 
140 FRAJean-Marc BideauFRABretagne - Séché Environnement04:58:13  +  00:30:47=32,493 
141 GERJohn DegenkolbNLDTeam Giant - Shimano04:58:27  +  00:31:01=32,468 
142 GERAndré GreipelBELLotto-Belisol Team04:58:43  +  00:31:17=32,439 
143 USAMatthew BuscheUSATrek Factory Racing04:58:51  +  00:31:25=32,424 
144 GERMarcus BurghardtUSABMC Racing Team04:59:26  +  00:32:00=32,361 
145 ITADaniele BennatiRUSTinkoff Saxo04:59:55  +  00:32:29=32,309 
146 DENMichael MørkøvRUSTinkoff Saxo04:59:55  +  00:32:29=32,309 
147 NEDSebastian LangeveldUSAGarmin Sharp04:59:55  +  00:32:29=32,309 
148 FRAWilliam BonnetFRAFDJ.fr04:59:55  +  00:32:29=32,309 
149 ITAAlessandro PetacchiBELOmega Pharma – Quick Step04:59:55  +  00:32:29=32,309 
150 FRAMickael DelageFRAFDJ.fr04:59:55  +  00:32:29=32,309 
151 FRABenoît JarrierFRABretagne - Séché Environnement04:59:55  +  00:32:29=32,309 
152 FRACédric PineauFRAFDJ.fr04:59:55  +  00:32:29=32,309 
153 POLMaciej BodnarITACannondale Pro Cycling04:59:55  +  00:32:29=32,309 
154 AUSZakkari DempsterDEUTeam NetApp – Endura04:59:55  +  00:32:29=32,309 
155 GERMarcel KittelNLDTeam Giant - Shimano04:59:55  +  00:32:29=32,309 
156 FRARomain FeilluFRABretagne - Séché Environnement04:59:55  +  00:32:29=32,309 
157 BELDries DevenynsNLDTeam Giant - Shimano04:59:55  +  00:32:29=32,309 
158 COLJanier AcevedoUSAGarmin Sharp04:59:55  +  00:32:29=32,309 
159 FRAArnaud DémareFRAFDJ.fr04:59:55  +  00:32:29=32,309 
160 FRASamuel DumoulinFRAAg2r La Mondiale04:59:55  +  00:32:29=32,309 
161 ESPBeñat IntxaustiESPMovistar Team04:59:55  +  00:32:29=32,309 
162 URSRamunas NavardauskasUSAGarmin Sharp04:59:55  +  00:32:29=32,309 
163 NEDTom VeelersNLDTeam Giant - Shimano04:59:55  +  00:32:29=32,309 
164 ITAElia VivianiITACannondale Pro Cycling04:59:55  +  00:32:29=32,309 
165 AUTBernhard EiselGBRSky Procycling04:59:55  +  00:32:29=32,309 
166 CANSvein TuftAUSOrica - GreenEDGE04:59:55  +  00:32:29=32,309 
167 NEDNiki TerpstraBELOmega Pharma – Quick Step04:59:55  +  00:32:29=32,309 
168 USADanny PateGBRSky Procycling04:59:55  +  00:32:29=32,309 
169 FRAJean-Marc MarinoITACannondale Pro Cycling04:59:55  +  00:32:29=32,309 
170 RUSVladimir IsaichevRUSTeam Katusha04:59:55  +  00:32:29=32,309 
171 AUSMark RenshawBELOmega Pharma – Quick Step04:59:55  +  00:32:29=32,309 
172 NORAlexander KristoffRUSTeam Katusha04:59:55  +  00:32:29=32,309 
173 GERRoger KlugeCHEIAM Cycling04:59:55  +  00:32:29=32,309 
174 ITALuca PaoliniRUSTeam Katusha04:59:55  +  00:32:29=32,309 
175 GERMarcel SiebergBELLotto-Belisol Team04:59:55  +  00:32:29=32,309 
176 CHNCheng JiNLDTeam Giant - Shimano04:59:55  +  00:32:29=32,309 
177 ENGSimon YatesAUSOrica - GreenEDGE04:59:55  +  00:32:29=32,309 
178 FRAAdrien PetitFRACofidis – Solutions Crédits05:00:13  +  00:32:47=32,277 
179 GERAndreas SchillingerDEUTeam NetApp – Endura05:10:32  +  00:43:06=31,204 
180 PORTiago PintoDEUTeam NetApp – Endura05:10:32  +  00:43:06=31,204 

Withdrawls: 3
 
Rider
Team
Reason
31  ESPAlberto ContadorRUSTinkoff SaxoDid not finish
54  USAEdward KingITACannondale Pro CyclingDid not finish
185  AUSMathew HaymanAUSOrica - GreenEDGEDid not finish

Todays birthdays.

1886  Jean Meziere
1887  Pierre Herbette
1887  Octave Lapize
1898  Felix Manthey
1920  René Biever
1920  Georges Ramoulux
1928  René Marigil
1940  Jean-Pierre Genet
1944  Giannino Bianco
1945  Eddy Cael
1950  Bert Pronk
1954  Marc Dierickx
1961  Chris Carmichael
1973  Levi Leipheimer